Time;durP1;ratioP1;P1;durP2;ratioP2;P2;SDS_P1;SDS_P2;PMS_P1;PMS_P2;Temp;Humidity;BMP_temperature;BMP_pressure;BME280_temperature;BME280_humidity;BME280_pressure;Samples;Min_cycle;Max_cycle;Signal;HPM_P1;HPM_P2
2022/01/29 00:00:22;;;;;;;;;;;21.40;45.40;;;;;;5136727;27;19999;-45
2022/01/29 00:02:49;;;;;;;;;;;21.40;45.40;;;;;;5136684;27;19976;-44
2022/01/29 00:05:16;;;;;;;;;;;21.40;45.50;;;;;;5137122;27;20006;-42
2022/01/29 00:07:43;;;;;;;;;;;21.40;45.50;;;;;;5136729;27;19923;-40
2022/01/29 00:10:10;;;;;;;;;;;21.40;45.50;;;;;;5134607;27;19924;-41
2022/01/29 00:12:38;;;;;;;;;;;21.40;45.50;;;;;;5116341;28;19930;-41
2022/01/29 00:15:05;;;;;;;;;;;21.40;45.50;;;;;;5116350;28;19993;-41
2022/01/29 00:17:32;;;;;;;;;;;21.40;45.40;;;;;;5116015;28;19927;-42
2022/01/29 00:19:59;;;;;;;;;;;21.40;45.50;;;;;;5115970;28;19986;-40
2022/01/29 00:22:26;;;;;;;;;;;21.40;45.50;;;;;;5115797;28;19924;-42
2022/01/29 00:24:53;;;;;;;;;;;21.40;45.50;;;;;;5115848;28;19923;-41
2022/01/29 00:27:22;;;;;;;;;;;21.40;45.50;;;;;;5114449;28;19924;-43
2022/01/29 00:29:49;;;;;;;;;;;21.40;45.50;;;;;;5114875;28;19969;-40
2022/01/29 00:32:16;;;;;;;;;;;21.40;45.50;;;;;;5115768;28;19978;-39
2022/01/29 00:34:43;;;;;;;;;;;21.40;45.50;;;;;;5115864;28;19993;-41
2022/01/29 00:37:10;;;;;;;;;;;21.40;45.50;;;;;;5115945;28;19923;-40
2022/01/29 00:39:37;;;;;;;;;;;21.40;45.50;;;;;;5097833;28;19925;-38
2022/01/29 00:42:05;;;;;;;;;;;21.40;45.50;;;;;;5114737;27;19923;-39
2022/01/29 00:44:46;;;;;;;;;;;21.40;45.50;;;;;;5115509;28;19938;-40
2022/01/29 00:47:13;;;;;;;;;;;21.40;45.50;;;;;;5115439;28;19924;-39
2022/01/29 00:49:41;;;;;;;;;;;21.40;45.50;;;;;;5115669;28;19924;-40
2022/01/29 00:52:08;;;;;;;;;;;21.30;45.40;;;;;;5115362;28;19927;-41
2022/01/29 00:54:35;;;;;;;;;;;21.30;45.40;;;;;;5115240;28;19981;-40
2022/01/29 00:57:02;;;;;;;;;;;21.30;45.40;;;;;;5113803;27;19973;-40
2022/01/29 00:59:31;;;;;;;;;;;21.30;45.40;;;;;;5115236;27;19971;-41
2022/01/29 01:01:58;;;;;;;;;;;21.30;45.40;;;;;;5115142;28;19923;-40
2022/01/29 01:04:25;;;;;;;;;;;21.30;45.40;;;;;;5115242;28;19974;-43
2022/01/29 01:06:52;;;;;;;;;;;21.30;45.40;;;;;;5115032;28;19924;-40
2022/01/29 01:09:19;;;;;;;;;;;21.30;45.40;;;;;;5114973;28;19924;-40
2022/01/29 01:11:46;;;;;;;;;;;21.30;45.50;;;;;;5114115;28;20295;-39
2022/01/29 01:14:13;;;;;;;;;;;21.30;45.40;;;;;;5115156;28;19939;-41
2022/01/29 01:16:40;;;;;;;;;;;21.30;45.50;;;;;;5115098;28;19999;-40
2022/01/29 01:19:07;;;;;;;;;;;21.30;45.50;;;;;;5114602;28;20435;-41
2022/01/29 01:21:34;;;;;;;;;;;21.30;45.50;;;;;;5114574;28;19924;-42
2022/01/29 01:24:01;;;;;;;;;;;21.30;45.50;;;;;;5115701;28;19928;-40
2022/01/29 01:26:27;;;;;;;;;;;21.30;45.50;;;;;;5113769;27;19978;-40
2022/01/29 01:28:54;;;;;;;;;;;21.30;45.40;;;;;;5114894;28;19973;-42
2022/01/29 01:31:21;;;;;;;;;;;21.30;45.50;;;;;;5114439;28;19978;-42
2022/01/29 01:33:50;;;;;;;;;;;21.30;45.50;;;;;;5114405;28;19923;-40
2022/01/29 01:36:20;;;;;;;;;;;21.30;45.50;;;;;;5114498;28;20357;-41
2022/01/29 01:38:54;;;;;;;;;;;21.30;45.50;;;;;;5114428;28;20035;-40
2022/01/29 01:41:25;;;;;;;;;;;21.30;46.10;;;;;;5113471;28;20229;-43
2022/01/29 01:43:59;;;;;;;;;;;21.30;45.60;;;;;;5114334;28;20018;-38
2022/01/29 01:46:28;;;;;;;;;;;21.30;45.50;;;;;;5114257;28;19967;-42
2022/01/29 01:48:56;;;;;;;;;;;21.30;45.50;;;;;;5114484;28;20337;-41
2022/01/29 01:51:24;;;;;;;;;;;21.30;45.50;;;;;;5114283;28;20326;-41
2022/01/29 01:53:52;;;;;;;;;;;21.30;45.60;;;;;;5114423;28;20377;-40
2022/01/29 01:56:18;;;;;;;;;;;21.30;45.60;;;;;;5112910;27;19924;-42
2022/01/29 01:58:46;;;;;;;;;;;21.20;45.50;;;;;;5114036;28;20304;-42
2022/01/29 02:01:13;;;;;;;;;;;21.20;45.50;;;;;;5114288;28;20287;-40
2022/01/29 02:03:40;;;;;;;;;;;21.30;45.60;;;;;;5113839;28;19924;-41
2022/01/29 02:06:08;;;;;;;;;;;21.20;45.50;;;;;;5114242;28;20307;-40
2022/01/29 02:08:35;;;;;;;;;;;21.20;45.50;;;;;;5113825;28;19923;-44
2022/01/29 02:11:03;;;;;;;;;;;21.20;45.50;;;;;;5113767;28;19990;-39
2022/01/29 02:13:30;;;;;;;;;;;21.20;45.50;;;;;;5112609;28;19977;-41
2022/01/29 02:15:58;;;;;;;;;;;21.20;45.50;;;;;;5114079;28;19924;-39
2022/01/29 02:18:25;;;;;;;;;;;21.20;45.50;;;;;;5114043;28;19980;-39
2022/01/29 02:20:52;;;;;;;;;;;21.20;45.50;;;;;;5113511;28;19939;-40
2022/01/29 02:23:21;;;;;;;;;;;21.20;45.50;;;;;;5112797;28;21845;-41
2022/01/29 02:25:49;;;;;;;;;;;21.20;45.50;;;;;;5113952;28;19931;-43
2022/01/29 02:28:21;;;;;;;;;;;21.20;45.50;;;;;;5112430;28;19924;-41
2022/01/29 02:31:03;;;;;;;;;;;21.20;45.50;;;;;;5113845;28;19967;-39
2022/01/29 02:33:31;;;;;;;;;;;21.20;45.50;;;;;;5113496;28;20371;-40
2022/01/29 02:35:58;;;;;;;;;;;21.20;45.50;;;;;;5113504;28;20012;-41
2022/01/29 02:38:26;;;;;;;;;;;21.20;45.50;;;;;;5113504;28;19923;-39
2022/01/29 02:40:57;;;;;;;;;;;21.20;45.50;;;;;;5113818;28;19928;-40
2022/01/29 02:43:27;;;;;;;;;;;21.20;45.50;;;;;;5126236;28;19969;-40
2022/01/29 02:45:55;;;;;;;;;;;21.20;45.60;;;;;;5134013;28;20307;-40
2022/01/29 02:48:22;;;;;;;;;;;21.20;45.50;;;;;;5134270;28;19923;-40
2022/01/29 02:50:50;;;;;;;;;;;21.20;45.50;;;;;;5134136;28;19924;-39
2022/01/29 02:53:17;;;;;;;;;;;21.20;45.50;;;;;;5135247;27;20355;-39
2022/01/29 02:55:44;;;;;;;;;;;21.20;45.50;;;;;;5138482;27;20344;-40
2022/01/29 02:58:11;;;;;;;;;;;21.20;45.60;;;;;;5124986;27;19924;-40
2022/01/29 03:00:38;;;;;;;;;;;21.20;45.60;;;;;;5117893;28;19924;-40
2022/01/29 03:03:05;;;;;;;;;;;21.20;45.60;;;;;;5117662;28;19930;-42
2022/01/29 03:05:32;;;;;;;;;;;21.20;45.60;;;;;;5117700;28;20035;-40
2022/01/29 03:07:59;;;;;;;;;;;21.20;45.60;;;;;;5117339;28;19930;-39
2022/01/29 03:10:26;;;;;;;;;;;21.20;45.60;;;;;;5117541;28;20006;-42
2022/01/29 03:12:53;;;;;;;;;;;21.20;45.60;;;;;;5116070;28;19955;-41
2022/01/29 03:15:20;;;;;;;;;;;21.20;45.60;;;;;;5117526;28;20336;-41
2022/01/29 03:17:48;;;;;;;;;;;21.20;45.60;;;;;;5117142;28;20022;-39
2022/01/29 03:20:15;;;;;;;;;;;21.20;45.60;;;;;;5117066;28;19930;-41
2022/01/29 03:22:42;;;;;;;;;;;21.10;45.50;;;;;;5117200;28;19953;-42
2022/01/29 03:25:09;;;;;;;;;;;21.20;45.60;;;;;;5116985;28;19923;-44
2022/01/29 03:27:36;;;;;;;;;;;21.20;45.60;;;;;;5116978;27;19928;-40
2022/01/29 03:30:04;;;;;;;;;;;21.10;45.50;;;;;;5116902;28;19928;-41
2022/01/29 03:32:30;;;;;;;;;;;21.20;45.60;;;;;;5117087;28;20001;-44
2022/01/29 03:34:57;;;;;;;;;;;21.10;45.50;;;;;;5116660;28;19930;-40
2022/01/29 03:37:24;;;;;;;;;;;21.10;45.50;;;;;;5116729;28;19930;-41
2022/01/29 03:39:52;;;;;;;;;;;21.10;45.50;;;;;;5117016;28;19927;-43
2022/01/29 03:42:19;;;;;;;;;;;21.10;45.50;;;;;;5115965;27;20015;-39
2022/01/29 03:44:48;;;;;;;;;;;21.10;45.50;;;;;;5116360;28;19931;-42
2022/01/29 03:47:14;;;;;;;;;;;21.10;45.50;;;;;;5116594;28;19930;-42
2022/01/29 03:49:41;;;;;;;;;;;21.10;45.50;;;;;;5116569;28;19938;-40
2022/01/29 03:52:08;;;;;;;;;;;21.10;45.50;;;;;;5116333;28;19930;-43
2022/01/29 03:54:35;;;;;;;;;;;21.10;45.50;;;;;;5116407;28;19967;-45
2022/01/29 03:57:02;;;;;;;;;;;21.10;45.50;;;;;;5117264;28;20299;-43
2022/01/29 03:59:29;;;;;;;;;;;21.10;45.50;;;;;;5115441;28;19924;-40
2022/01/29 04:01:56;;;;;;;;;;;21.10;45.50;;;;;;5116591;28;19931;-40
2022/01/29 04:04:24;;;;;;;;;;;21.10;45.50;;;;;;5097158;28;19924;-40
2022/01/29 04:06:51;;;;;;;;;;;21.10;45.50;;;;;;5116260;28;20022;-42
2022/01/29 04:09:19;;;;;;;;;;;21.10;45.50;;;;;;5116524;28;19959;-41
2022/01/29 04:11:46;;;;;;;;;;;21.10;45.50;;;;;;5116377;28;19963;-40
2022/01/29 04:14:16;;;;;;;;;;;21.10;45.50;;;;;;5114967;27;20014;-43
2022/01/29 04:16:44;;;;;;;;;;;21.10;45.50;;;;;;5116059;28;19945;-41
2022/01/29 04:19:11;;;;;;;;;;;21.10;45.50;;;;;;5115811;28;19923;-45
2022/01/29 04:21:41;;;;;;;;;;;21.10;45.50;;;;;;5116142;28;19975;-40
2022/01/29 04:24:08;;;;;;;;;;;21.10;45.50;;;;;;5116220;28;19967;-41
2022/01/29 04:26:35;;;;;;;;;;;21.10;45.60;;;;;;5115865;28;20022;-44
2022/01/29 04:29:05;;;;;;;;;;;21.10;45.60;;;;;;5114895;28;19924;-45
2022/01/29 04:31:40;;;;;;;;;;;21.10;45.60;;;;;;5115647;28;20022;-40
2022/01/29 04:34:07;;;;;;;;;;;21.10;45.60;;;;;;5115892;28;20015;-42
2022/01/29 04:36:34;;;;;;;;;;;21.10;45.60;;;;;;5115705;28;20442;-39
2022/01/29 04:39:01;;;;;;;;;;;21.10;45.60;;;;;;5115904;28;19963;-41
2022/01/29 04:41:28;;;;;;;;;;;21.10;45.60;;;;;;5115533;28;20014;-43
2022/01/29 04:43:55;;;;;;;;;;;21.10;45.60;;;;;;5114659;27;20291;-45
2022/01/29 04:46:22;;;;;;;;;;;21.10;45.60;;;;;;5115444;28;19923;-43
2022/01/29 04:48:49;;;;;;;;;;;21.10;45.60;;;;;;5115426;28;20006;-45
2022/01/29 04:51:16;;;;;;;;;;;21.10;45.50;;;;;;5115261;28;20014;-41
2022/01/29 04:53:43;;;;;;;;;;;21.10;45.60;;;;;;5115117;28;19980;-41
2022/01/29 04:56:10;;;;;;;;;;;21.10;45.50;;;;;;5115271;28;20007;-44
2022/01/29 04:58:37;;;;;;;;;;;21.10;45.60;;;;;;5113853;28;19923;-42
2022/01/29 05:01:05;;;;;;;;;;;21.10;45.60;;;;;;5115204;28;19969;-43
2022/01/29 05:03:32;;;;;;;;;;;21.10;45.60;;;;;;5115005;28;20370;-41
2022/01/29 05:06:00;;;;;;;;;;;21.10;45.60;;;;;;5115147;28;20015;-42
2022/01/29 05:08:32;;;;;;;;;;;21.00;45.50;;;;;;5115364;28;19923;-41
2022/01/29 05:10:59;;;;;;;;;;;21.00;45.50;;;;;;5114854;28;19924;-40
2022/01/29 05:13:28;;;;;;;;;;;21.00;45.50;;;;;;5113880;27;19924;-45
2022/01/29 05:29:18;;;;;;;;;;;21.00;45.50;;;;;;5113777;27;19931;-40
2022/01/29 05:31:45;;;;;;;;;;;21.00;45.50;;;;;;5115142;28;20352;-44
2022/01/29 05:34:12;;;;;;;;;;;21.00;45.50;;;;;;5114411;28;19967;-44
2022/01/29 05:36:39;;;;;;;;;;;21.00;45.50;;;;;;5096782;28;19973;-40
2022/01/29 05:39:05;;;;;;;;;;;21.00;45.50;;;;;;5114457;28;19966;-41
2022/01/29 05:41:32;;;;;;;;;;;21.00;45.50;;;;;;5114413;28;19924;-44
2022/01/29 05:43:59;;;;;;;;;;;21.00;45.50;;;;;;5113454;28;19927;-41
2022/01/29 05:46:26;;;;;;;;;;;21.00;45.50;;;;;;5114273;28;19923;-43
2022/01/29 05:48:53;;;;;;;;;;;21.00;45.50;;;;;;5114569;28;19924;-42
2022/01/29 05:51:20;;;;;;;;;;;21.00;45.50;;;;;;5114416;28;20014;-39
2022/01/29 05:53:47;;;;;;;;;;;21.00;45.50;;;;;;5114078;28;20394;-41
2022/01/29 05:56:14;;;;;;;;;;;21.00;45.50;;;;;;5114415;28;19928;-41
2022/01/29 05:58:41;;;;;;;;;;;21.00;45.60;;;;;;5095674;28;19939;-41
2022/01/29 06:01:08;;;;;;;;;;;21.00;45.50;;;;;;5113504;28;19928;-41
2022/01/29 06:03:35;;;;;;;;;;;21.00;45.60;;;;;;5114220;28;19955;-42
2022/01/29 06:06:02;;;;;;;;;;;21.00;45.60;;;;;;5114288;28;20336;-40
2022/01/29 06:08:29;;;;;;;;;;;21.00;45.60;;;;;;5114269;28;20328;-42
2022/01/29 06:10:56;;;;;;;;;;;21.00;45.50;;;;;;5114229;28;20022;-41
2022/01/29 06:13:23;;;;;;;;;;;21.00;45.60;;;;;;5113693;28;19977;-40
2022/01/29 06:15:52;;;;;;;;;;;21.00;45.60;;;;;;5112601;28;20417;-42
2022/01/29 06:18:20;;;;;;;;;;;21.00;45.60;;;;;;5113791;28;20405;-43
2022/01/29 06:20:49;;;;;;;;;;;20.90;45.50;;;;;;5113628;28;19973;-45
2022/01/29 06:23:17;;;;;;;;;;;20.90;45.50;;;;;;5113855;28;20000;-42
2022/01/29 06:25:44;;;;;;;;;;;21.00;45.90;;;;;;5113973;28;19992;-44
2022/01/29 06:28:11;;;;;;;;;;;20.90;46.10;;;;;;5113014;28;19984;-44
2022/01/29 06:30:38;;;;;;;;;;;20.90;45.50;;;;;;5112676;28;19923;-42
2022/01/29 06:33:09;;;;;;;;;;;20.90;45.50;;;;;;5113441;28;19947;-42
2022/01/29 06:35:37;;;;;;;;;;;20.90;45.50;;;;;;5113867;28;19923;-40
2022/01/29 06:38:04;;;;;;;;;;;20.90;45.50;;;;;;5113477;28;20027;-40
2022/01/29 06:40:31;;;;;;;;;;;21.00;45.60;;;;;;5113539;28;20014;-46
2022/01/29 06:42:58;;;;;;;;;;;20.90;45.50;;;;;;5113734;28;20023;-42
2022/01/29 06:45:25;;;;;;;;;;;20.90;45.50;;;;;;5112195;28;19924;-41
2022/01/29 06:47:52;;;;;;;;;;;20.90;45.50;;;;;;5113676;28;19973;-42
2022/01/29 06:50:19;;;;;;;;;;;21.00;45.60;;;;;;5113321;28;19923;-44
2022/01/29 06:52:46;;;;;;;;;;;20.90;45.50;;;;;;5113113;28;20105;-42
2022/01/29 06:55:13;;;;;;;;;;;20.90;45.50;;;;;;5113682;28;20309;-42
2022/01/29 06:57:40;;;;;;;;;;;20.90;45.50;;;;;;5113278;28;19930;-42
2022/01/29 07:00:27;;;;;;;;;;;20.90;45.50;;;;;;5112147;28;19924;-42
2022/01/29 07:02:54;;;;;;;;;;;20.90;45.50;;;;;;5113461;28;20021;-42
2022/01/29 07:05:22;;;;;;;;;;;20.90;45.50;;;;;;5114103;28;20301;-44
2022/01/29 07:07:49;;;;;;;;;;;20.90;45.40;;;;;;5113178;28;19989;-41
2022/01/29 07:10:17;;;;;;;;;;;21.00;45.50;;;;;;5113958;28;19923;-44
2022/01/29 07:12:44;;;;;;;;;;;20.90;45.40;;;;;;5113826;28;19927;-41
2022/01/29 07:15:11;;;;;;;;;;;21.00;45.50;;;;;;5111972;28;19977;-43
2022/01/29 07:17:40;;;;;;;;;;;21.00;45.50;;;;;;5113147;28;19930;-42
2022/01/29 07:20:07;;;;;;;;;;;21.00;45.50;;;;;;5112917;28;19977;-41
2022/01/29 07:22:34;;;;;;;;;;;21.00;45.50;;;;;;5112859;28;19932;-41
2022/01/29 07:25:02;;;;;;;;;;;21.00;45.50;;;;;;5113068;28;19932;-44
2022/01/29 07:27:29;;;;;;;;;;;21.00;45.50;;;;;;5113061;28;19980;-45
2022/01/29 07:29:56;;;;;;;;;;;21.00;45.50;;;;;;5111889;28;19954;-44
2022/01/29 07:32:22;;;;;;;;;;;21.00;45.50;;;;;;5112809;28;20003;-43
2022/01/29 07:34:49;;;;;;;;;;;21.00;45.50;;;;;;5112933;28;20000;-46
2022/01/29 07:37:16;;;;;;;;;;;21.00;45.40;;;;;;5113267;28;19976;-41
2022/01/29 07:39:43;;;;;;;;;;;21.00;45.40;;;;;;5115295;28;20019;-42
2022/01/29 07:42:10;;;;;;;;;;;21.00;45.40;;;;;;5117027;28;19967;-40
2022/01/29 07:44:37;;;;;;;;;;;21.00;45.40;;;;;;5116649;28;19953;-42
2022/01/29 07:47:04;;;;;;;;;;;21.00;45.30;;;;;;5115581;28;19940;-42
2022/01/29 07:49:31;;;;;;;;;;;21.00;45.30;;;;;;5116011;28;19947;-41
2022/01/29 07:51:58;;;;;;;;;;;21.00;45.30;;;;;;5116274;28;19923;-42
2022/01/29 07:54:25;;;;;;;;;;;21.00;45.30;;;;;;5116673;28;19982;-43
2022/01/29 07:56:52;;;;;;;;;;;21.00;45.30;;;;;;5116141;28;19924;-40
2022/01/29 07:59:19;;;;;;;;;;;21.00;45.30;;;;;;5116423;28;19954;-41
2022/01/29 08:01:46;;;;;;;;;;;21.00;45.30;;;;;;5115304;28;19946;-42
2022/01/29 08:04:13;;;;;;;;;;;21.00;45.20;;;;;;5116514;28;19938;-46
2022/01/29 08:06:40;;;;;;;;;;;21.10;45.30;;;;;;5116282;28;19924;-46
2022/01/29 08:09:08;;;;;;;;;;;21.10;45.20;;;;;;5116210;28;19931;-45
2022/01/29 08:11:35;;;;;;;;;;;21.10;45.20;;;;;;5116391;28;19978;-48
2022/01/29 08:14:02;;;;;;;;;;;21.10;45.20;;;;;;5116026;28;20000;-46
2022/01/29 08:16:29;;;;;;;;;;;21.10;45.10;;;;;;5114857;28;19924;-44
2022/01/29 08:18:56;;;;;;;;;;;21.10;45.10;;;;;;5116050;28;19973;-43
2022/01/29 08:21:23;;;;;;;;;;;21.10;45.10;;;;;;5115732;28;19969;-39
2022/01/29 08:23:50;;;;;;;;;;;21.10;45.10;;;;;;5115894;28;19977;-40
2022/01/29 08:26:17;;;;;;;;;;;21.10;45.00;;;;;;5115848;28;19924;-42
2022/01/29 08:28:44;;;;;;;;;;;21.10;45.00;;;;;;5115870;28;19967;-43
2022/01/29 08:31:11;;;;;;;;;;;21.10;44.90;;;;;;5115211;27;19927;-41
2022/01/29 08:33:38;;;;;;;;;;;21.20;45.00;;;;;;5115543;28;19924;-40
2022/01/29 08:36:07;;;;;;;;;;;21.20;45.00;;;;;;5116003;28;19969;-42
2022/01/29 08:38:34;;;;;;;;;;;21.20;44.90;;;;;;5115607;28;19935;-41
2022/01/29 08:41:03;;;;;;;;;;;21.20;44.90;;;;;;5115960;28;20341;-40
2022/01/29 08:43:32;;;;;;;;;;;21.20;44.80;;;;;;5115877;28;19930;-40
2022/01/29 08:46:00;;;;;;;;;;;21.20;44.80;;;;;;5114639;27;19923;-42
2022/01/29 08:48:27;;;;;;;;;;;21.20;44.80;;;;;;5115673;28;19924;-45
2022/01/29 08:50:54;;;;;;;;;;;21.20;44.70;;;;;;5114637;28;19980;-41
2022/01/29 08:53:21;;;;;;;;;;;21.30;44.70;;;;;;5115332;28;20287;-44
2022/01/29 08:55:48;;;;;;;;;;;21.30;44.70;;;;;;5115270;28;19923;-41
2022/01/29 08:58:15;;;;;;;;;;;21.30;44.60;;;;;;5115242;27;19923;-43
2022/01/29 09:00:46;;;;;;;;;;;21.30;44.60;;;;;;5114176;28;19924;-46
2022/01/29 09:03:15;;;;;;;;;;;21.30;44.50;;;;;;5115409;28;19931;-43
2022/01/29 09:05:42;;;;;;;;;;;21.30;44.50;;;;;;5115375;28;19927;-41
2022/01/29 09:08:10;;;;;;;;;;;21.30;44.50;;;;;;5115330;28;20400;-42
2022/01/29 09:10:38;;;;;;;;;;;21.40;44.50;;;;;;5114911;28;20023;-41
2022/01/29 09:13:06;;;;;;;;;;;21.40;44.50;;;;;;5096991;28;20026;-44
2022/01/29 09:15:33;;;;;;;;;;;21.40;44.40;;;;;;5115230;28;20354;-43
2022/01/29 09:18:00;;;;;;;;;;;21.40;44.30;;;;;;5113686;28;19931;-41
2022/01/29 09:20:27;;;;;;;;;;;21.40;44.30;;;;;;5114643;28;19930;-41
2022/01/29 09:22:54;;;;;;;;;;;21.50;44.30;;;;;;5114636;28;19969;-44
2022/01/29 09:25:21;;;;;;;;;;;21.50;44.30;;;;;;5114706;28;20355;-40
2022/01/29 09:27:48;;;;;;;;;;;21.50;44.20;;;;;;5114652;28;19931;-44
2022/01/29 09:30:15;;;;;;;;;;;21.50;44.20;;;;;;5114647;28;19973;-42
2022/01/29 09:32:47;;;;;;;;;;;21.50;44.10;;;;;;5096269;28;19973;-43
2022/01/29 09:35:15;;;;;;;;;;;21.50;44.10;;;;;;5114479;28;20483;-44
2022/01/29 09:37:42;;;;;;;;;;;21.50;44.10;;;;;;5114513;28;19924;-44
2022/01/29 09:40:09;;;;;;;;;;;21.50;44.10;;;;;;5114464;28;19924;-41
2022/01/29 09:42:36;;;;;;;;;;;21.50;44.10;;;;;;5114734;28;19930;-42
2022/01/29 09:45:03;;;;;;;;;;;21.50;44.10;;;;;;5114373;28;19930;-41
2022/01/29 09:47:31;;;;;;;;;;;21.50;44.10;;;;;;5113098;27;19924;-43
2022/01/29 09:49:58;;;;;;;;;;;21.50;44.00;;;;;;5096174;28;19923;-40
2022/01/29 09:52:25;;;;;;;;;;;21.50;44.00;;;;;;5113933;28;19927;-40
2022/01/29 09:54:57;;;;;;;;;;;21.50;44.00;;;;;;5114477;28;19958;-41
2022/01/29 09:57:24;;;;;;;;;;;21.60;44.10;;;;;;5114424;28;19928;-40
2022/01/29 09:59:51;;;;;;;;;;;21.60;44.00;;;;;;5114041;28;20043;-41
2022/01/29 10:02:19;;;;;;;;;;;21.50;43.90;;;;;;5112017;28;19924;-41
2022/01/29 10:04:52;;;;;;;;;;;21.60;44.00;;;;;;5114275;28;20255;-40
2022/01/29 10:07:25;;;;;;;;;;;21.60;43.90;;;;;;5114172;28;20018;-41
2022/01/29 10:09:53;;;;;;;;;;;21.60;43.90;;;;;;5114948;28;20279;-42
2022/01/29 10:12:27;;;;;;;;;;;21.60;43.90;;;;;;5114090;28;19930;-40
2022/01/29 10:14:56;;;;;;;;;;;21.60;43.80;;;;;;5114156;28;19934;-41
2022/01/29 10:17:39;;;;;;;;;;;21.60;43.80;;;;;;5112614;28;19924;-40
2022/01/29 10:20:20;;;;;;;;;;;21.70;43.80;;;;;;5113515;28;19971;-45
2022/01/29 10:22:51;;;;;;;;;;;21.70;43.80;;;;;;5113852;28;19924;-46
2022/01/29 10:25:22;;;;;;;;;;;21.70;43.80;;;;;;5113666;28;20395;-41
2022/01/29 10:28:08;;;;;;;;;;;21.70;43.80;;;;;;5113660;28;19924;-41
2022/01/29 10:30:55;;;;;;;;;;;21.70;43.70;;;;;;5113595;28;20026;-43
2022/01/29 10:33:24;;;;;;;;;;;21.70;43.70;;;;;;5111696;28;20101;-41
2022/01/29 10:35:53;;;;;;;;;;;21.70;43.70;;;;;;5128598;27;19927;-45
2022/01/29 10:38:22;;;;;;;;;;;21.70;43.70;;;;;;5134091;27;20382;-47
2022/01/29 10:41:08;;;;;;;;;;;21.70;43.70;;;;;;5133306;27;19980;-42
2022/01/29 10:43:36;;;;;;;;;;;21.70;43.70;;;;;;5133958;27;20015;-40
2022/01/29 10:46:03;;;;;;;;;;;21.70;43.70;;;;;;5134054;28;19924;-43
2022/01/29 10:48:48;;;;;;;;;;;21.80;43.80;;;;;;5117139;28;19923;-46
2022/01/29 10:51:15;;;;;;;;;;;21.80;43.80;;;;;;5113460;28;19963;-41
2022/01/29 10:53:43;;;;;;;;;;;21.80;43.70;;;;;;5113453;28;19959;-40
2022/01/29 10:56:10;;;;;;;;;;;21.80;43.80;;;;;;5113286;28;20026;-43
2022/01/29 10:58:41;;;;;;;;;;;21.80;43.70;;;;;;5113626;28;20098;-42
2022/01/29 11:01:24;;;;;;;;;;;21.80;43.70;;;;;;5113325;28;19955;-41
2022/01/29 11:03:54;;;;;;;;;;;21.80;43.70;;;;;;5127505;28;20451;-40
2022/01/29 11:06:28;;;;;;;;;;;21.80;43.70;;;;;;5134110;28;19999;-43
2022/01/29 11:08:56;;;;;;;;;;;21.80;43.70;;;;;;5133829;28;20383;-44
2022/01/29 11:11:24;;;;;;;;;;;21.80;43.70;;;;;;5133780;28;19923;-41
2022/01/29 11:14:11;;;;;;;;;;;21.80;43.70;;;;;;5134973;27;19945;-41
2022/01/29 11:16:38;;;;;;;;;;;21.80;43.70;;;;;;5120318;27;19924;-44
2022/01/29 11:19:06;;;;;;;;;;;21.80;43.70;;;;;;5118716;27;20014;-40
2022/01/29 11:21:34;;;;;;;;;;;21.80;43.70;;;;;;5117711;28;19924;-41
2022/01/29 11:24:01;;;;;;;;;;;21.80;43.70;;;;;;5117440;28;20329;-41
2022/01/29 11:26:31;;;;;;;;;;;21.80;43.70;;;;;;5117064;28;19930;-42
2022/01/29 11:29:17;;;;;;;;;;;21.80;43.70;;;;;;5099065;28;20011;-42
2022/01/29 11:31:43;;;;;;;;;;;21.80;43.70;;;;;;5117309;28;20296;-39
2022/01/29 11:34:13;;;;;;;;;;;21.80;43.70;;;;;;5115763;28;20283;-41
2022/01/29 11:36:49;;;;;;;;;;;21.80;43.70;;;;;;5117185;28;19956;-42
2022/01/29 11:39:19;;;;;;;;;;;21.80;43.70;;;;;;5116804;28;19973;-42
2022/01/29 11:42:06;;;;;;;;;;;21.80;43.70;;;;;;5117033;28;20010;-39
2022/01/29 11:44:33;;;;;;;;;;;21.80;43.70;;;;;;5116678;28;19973;-44
2022/01/29 11:47:18;;;;;;;;;;;21.80;43.70;;;;;;5117037;28;20001;-41
2022/01/29 11:49:46;;;;;;;;;;;21.80;43.70;;;;;;5116327;28;19928;-41
2022/01/29 11:52:23;;;;;;;;;;;21.80;43.60;;;;;;5116604;28;19980;-44
2022/01/29 11:55:06;;;;;;;;;;;21.80;43.60;;;;;;5098453;28;20023;-42
2022/01/29 11:57:33;;;;;;;;;;;21.80;43.60;;;;;;5116761;28;20221;-42
2022/01/29 12:00:33;;;;;;;;;;;21.80;43.60;;;;;;5116768;27;20229;-42
2022/01/29 12:03:00;;;;;;;;;;;21.80;43.60;;;;;;5016533;28;19936;-42
2022/01/29 12:05:52;;;;;;;;;;;21.80;43.60;;;;;;5034393;28;19976;-40
2022/01/29 12:08:20;;;;;;;;;;;21.80;43.60;;;;;;5026983;28;20022;-42
2022/01/29 12:10:56;;;;;;;;;;;21.80;43.60;;;;;;5033546;28;19925;-42
2022/01/29 12:13:23;;;;;;;;;;;21.80;43.70;;;;;;5034179;28;19925;-42
2022/01/29 12:15:55;;;;;;;;;;;21.80;43.60;;;;;;5033667;28;19936;-41
2022/01/29 12:18:23;;;;;;;;;;;21.80;43.60;;;;;;5031814;28;19964;-47
2022/01/29 12:20:50;;;;;;;;;;;21.80;43.60;;;;;;5018118;28;19925;-41
2022/01/29 12:23:17;;;;;;;;;;;21.80;43.70;;;;;;5013393;28;19925;-43
2022/01/29 12:25:50;;;;;;;;;;;21.80;43.70;;;;;;5012488;28;19972;-42
2022/01/29 12:28:17;;;;;;;;;;;21.80;43.70;;;;;;5013494;28;20297;-40
2022/01/29 12:30:45;;;;;;;;;;;21.80;43.70;;;;;;5013427;28;20335;-44
2022/01/29 12:33:13;;;;;;;;;;;21.80;43.70;;;;;;5011511;28;19933;-39
2022/01/29 12:35:42;;;;;;;;;;;21.80;43.70;;;;;;4997131;28;20017;-42
2022/01/29 12:38:10;;;;;;;;;;;21.80;43.70;;;;;;5038077;28;20352;-41
2022/01/29 12:40:41;;;;;;;;;;;21.80;43.70;;;;;;5095199;28;19954;-39
2022/01/29 12:43:29;;;;;;;;;;;21.80;43.70;;;;;;5095446;28;20101;-40
2022/01/29 12:46:07;;;;;;;;;;;21.80;43.80;;;;;;5084333;28;20363;-43
2022/01/29 12:48:34;;;;;;;;;;;21.80;43.70;;;;;;5094989;28;19946;-40
2022/01/29 12:51:06;;;;;;;;;;;21.80;43.70;;;;;;5096088;28;19963;-40
2022/01/29 12:53:34;;;;;;;;;;;21.80;43.70;;;;;;5095439;28;20433;-40
2022/01/29 12:56:08;;;;;;;;;;;21.80;43.70;;;;;;5095948;28;19931;-42
2022/01/29 12:58:36;;;;;;;;;;;21.80;43.70;;;;;;5095557;28;20375;-41
2022/01/29 13:01:04;;;;;;;;;;;21.80;43.70;;;;;;5095371;28;19924;-40
2022/01/29 13:03:32;;;;;;;;;;;21.80;43.70;;;;;;5094424;28;19993;-41
2022/01/29 13:06:08;;;;;;;;;;;21.80;43.70;;;;;;5095750;28;19970;-39
2022/01/29 13:08:35;;;;;;;;;;;21.80;43.70;;;;;;5095341;28;19974;-41
2022/01/29 13:11:03;;;;;;;;;;;21.80;43.70;;;;;;5095583;28;19973;-41
2022/01/29 13:13:31;;;;;;;;;;;21.80;43.70;;;;;;5095169;28;19963;-40
2022/01/29 13:15:58;;;;;;;;;;;21.80;43.70;;;;;;5095195;28;19928;-41
2022/01/29 13:18:26;;;;;;;;;;;21.80;43.70;;;;;;5094563;28;20067;-43
2022/01/29 13:20:54;;;;;;;;;;;21.80;43.70;;;;;;5110800;28;19924;-39
2022/01/29 13:23:21;;;;;;;;;;;21.80;43.70;;;;;;5115271;28;20451;-42
2022/01/29 13:25:48;;;;;;;;;;;21.80;43.70;;;;;;5115336;28;20052;-43
2022/01/29 13:28:17;;;;;;;;;;;21.80;43.70;;;;;;5115652;28;19923;-44
2022/01/29 13:30:44;;;;;;;;;;;21.80;43.70;;;;;;5115305;28;19934;-40
2022/01/29 13:33:19;;;;;;;;;;;21.80;43.60;;;;;;5115019;28;19931;-39
2022/01/29 13:35:47;;;;;;;;;;;21.80;43.60;;;;;;5114628;27;20286;-40
2022/01/29 13:38:17;;;;;;;;;;;21.80;43.60;;;;;;5115008;28;19924;-44
2022/01/29 13:40:52;;;;;;;;;;;21.80;43.60;;;;;;5115150;28;19957;-40
2022/01/29 13:43:26;;;;;;;;;;;21.80;43.60;;;;;;5115430;28;19924;-44
2022/01/29 13:45:54;;;;;;;;;;;21.80;43.60;;;;;;5115052;28;20383;-41
2022/01/29 13:48:24;;;;;;;;;;;21.80;43.60;;;;;;5115310;28;20294;-41
2022/01/29 13:50:59;;;;;;;;;;;21.80;43.60;;;;;;5113792;27;20428;-42
2022/01/29 13:53:38;;;;;;;;;;;21.80;43.60;;;;;;5115271;28;20302;-40
2022/01/29 13:56:09;;;;;;;;;;;21.80;43.60;;;;;;5114845;28;19930;-42
2022/01/29 13:59:03;;;;;;;;;;;21.80;43.60;;;;;;5114845;28;19980;-42
2022/01/29 14:01:47;;;;;;;;;;;21.80;43.70;;;;;;5111251;28;20330;-43
2022/01/29 14:04:56;;;;;;;;;;;21.80;43.70;;;;;;5113819;28;19934;-42
2022/01/29 14:07:26;;;;;;;;;;;21.80;43.70;;;;;;5114391;28;19924;-43
2022/01/29 14:09:59;;;;;;;;;;;21.70;43.60;;;;;;5114973;28;19977;-39
2022/01/29 14:12:27;;;;;;;;;;;21.70;43.60;;;;;;5114925;28;19927;-44
2022/01/29 14:14:56;;;;;;;;;;;21.70;43.70;;;;;;5114457;28;20026;-44
2022/01/29 14:17:33;;;;;;;;;;;21.70;43.70;;;;;;5114536;28;20387;-40
2022/01/29 14:20:13;;;;;;;;;;;21.70;43.70;;;;;;5113086;28;19938;-41
2022/01/29 14:22:45;;;;;;;;;;;21.70;43.70;;;;;;5114583;28;19924;-39
2022/01/29 14:25:13;;;;;;;;;;;21.70;43.70;;;;;;5114396;28;19928;-42
2022/01/29 14:27:40;;;;;;;;;;;21.70;43.70;;;;;;5114361;28;19967;-41
2022/01/29 14:30:09;;;;;;;;;;;21.70;43.70;;;;;;5115146;28;19924;-41
2022/01/29 14:32:37;;;;;;;;;;;21.70;43.70;;;;;;5114466;28;19959;-40
2022/01/29 14:35:06;;;;;;;;;;;21.70;43.70;;;;;;5094994;28;19924;-40
2022/01/29 14:37:34;;;;;;;;;;;21.70;43.70;;;;;;5114242;28;19924;-40
2022/01/29 14:40:04;;;;;;;;;;;21.70;43.70;;;;;;5114219;28;19924;-40